sensor_id;sensor_type;location;lat;lon;timestamp;temperature;humidity
9448;DHT22;4762;48.128;11.376;2023-02-01T00:01:35;2.60;85.50
9448;DHT22;4762;48.128;11.376;2023-02-01T00:03:37;2.60;85.20
9448;DHT22;4762;48.128;11.376;2023-02-01T00:05:40;3.00;85.00
9448;DHT22;4762;48.128;11.376;2023-02-01T00:07:42;2.80;85.10
9448;DHT22;4762;48.128;11.376;2023-02-01T00:09:44;2.80;85.30
9448;DHT22;4762;48.128;11.376;2023-02-01T00:11:46;2.70;85.40
9448;DHT22;4762;48.128;11.376;2023-02-01T00:13:49;2.70;85.30
9448;DHT22;4762;48.128;11.376;2023-02-01T00:15:51;2.90;85.00
9448;DHT22;4762;48.128;11.376;2023-02-01T00:17:54;2.80;84.90
9448;DHT22;4762;48.128;11.376;2023-02-01T00:19:55;2.70;85.20
9448;DHT22;4762;48.128;11.376;2023-02-01T00:21:58;2.80;85.40
9448;DHT22;4762;48.128;11.376;2023-02-01T00:24:00;2.90;86.10
9448;DHT22;4762;48.128;11.376;2023-02-01T00:26:04;2.90;86.40
9448;DHT22;4762;48.128;11.376;2023-02-01T00:28:05;2.60;86.30
9448;DHT22;4762;48.128;11.376;2023-02-01T00:30:08;2.70;86.30
9448;DHT22;4762;48.128;11.376;2023-02-01T00:32:11;2.70;86.50
9448;DHT22;4762;48.128;11.376;2023-02-01T00:34:14;2.70;86.50
9448;DHT22;4762;48.128;11.376;2023-02-01T00:36:15;2.80;86.40
9448;DHT22;4762;48.128;11.376;2023-02-01T00:38:18;2.70;86.50
9448;DHT22;4762;48.128;11.376;2023-02-01T00:40:20;2.70;86.80
9448;DHT22;4762;48.128;11.376;2023-02-01T00:42:22;2.60;87.10
9448;DHT22;4762;48.128;11.376;2023-02-01T00:44:24;2.50;87.00
9448;DHT22;4762;48.128;11.376;2023-02-01T00:46:27;2.50;87.50
9448;DHT22;4762;48.128;11.376;2023-02-01T00:48:29;2.40;88.40
9448;DHT22;4762;48.128;11.376;2023-02-01T00:50:31;2.30;89.20
9448;DHT22;4762;48.128;11.376;2023-02-01T00:52:33;2.20;89.60
9448;DHT22;4762;48.128;11.376;2023-02-01T00:54:36;2.30;90.00
9448;DHT22;4762;48.128;11.376;2023-02-01T00:56:39;2.20;89.40
9448;DHT22;4762;48.128;11.376;2023-02-01T00:58:41;2.30;89.40
9448;DHT22;4762;48.128;11.376;2023-02-01T01:00:43;2.30;89.40
9448;DHT22;4762;48.128;11.376;2023-02-01T01:02:45;2.30;89.20
9448;DHT22;4762;48.128;11.376;2023-02-01T01:04:48;2.40;89.30
9448;DHT22;4762;48.128;11.376;2023-02-01T01:06:50;2.20;89.20
9448;DHT22;4762;48.128;11.376;2023-02-01T01:08:53;2.40;89.20
9448;DHT22;4762;48.128;11.376;2023-02-01T01:10:55;2.40;89.60
9448;DHT22;4762;48.128;11.376;2023-02-01T01:12:57;2.20;89.80
9448;DHT22;4762;48.128;11.376;2023-02-01T01:14:59;2.30;89.80
9448;DHT22;4762;48.128;11.376;2023-02-01T01:17:02;2.30;89.80
9448;DHT22;4762;48.128;11.376;2023-02-01T01:19:04;2.30;90.70
9448;DHT22;4762;48.128;11.376;2023-02-01T01:21:07;2.50;91.30
9448;DHT22;4762;48.128;11.376;2023-02-01T01:23:09;2.10;91.80
9448;DHT22;4762;48.128;11.376;2023-02-01T01:25:11;2.30;92.10
9448;DHT22;4762;48.128;11.376;2023-02-01T01:27:13;2.10;92.40
9448;DHT22;4762;48.128;11.376;2023-02-01T01:29:15;2.20;92.40
9448;DHT22;4762;48.128;11.376;2023-02-01T01:31:18;2.20;92.60
9448;DHT22;4762;48.128;11.376;2023-02-01T01:33:20;2.10;92.90
9448;DHT22;4762;48.128;11.376;2023-02-01T01:35:22;1.90;92.90
9448;DHT22;4762;48.128;11.376;2023-02-01T01:37:24;1.90;93.20
9448;DHT22;4762;48.128;11.376;2023-02-01T01:39:27;2.20;93.30
9448;DHT22;4762;48.128;11.376;2023-02-01T01:41:30;1.90;93.30
9448;DHT22;4762;48.128;11.376;2023-02-01T01:43:47;2.00;93.70
9448;DHT22;4762;48.128;11.376;2023-02-01T01:45:49;1.90;93.70
9448;DHT22;4762;48.128;11.376;2023-02-01T01:47:52;1.80;94.00
9448;DHT22;4762;48.128;11.376;2023-02-01T01:49:53;1.80;94.10
9448;DHT22;4762;48.128;11.376;2023-02-01T01:51:57;1.90;94.20
9448;DHT22;4762;48.128;11.376;2023-02-01T01:54:16;1.80;94.30
9448;DHT22;4762;48.128;11.376;2023-02-01T01:56:17;1.90;94.50
9448;DHT22;4762;48.128;11.376;2023-02-01T01:58:21;1.80;94.50
9448;DHT22;4762;48.128;11.376;2023-02-01T02:00:22;2.00;94.50
9448;DHT22;4762;48.128;11.376;2023-02-01T02:02:24;1.70;94.60
9448;DHT22;4762;48.128;11.376;2023-02-01T02:04:26;1.90;94.50
9448;DHT22;4762;48.128;11.376;2023-02-01T02:06:38;1.80;94.60
9448;DHT22;4762;48.128;11.376;2023-02-01T02:08:38;1.70;94.60
9448;DHT22;4762;48.128;11.376;2023-02-01T02:10:41;1.60;94.70
9448;DHT22;4762;48.128;11.376;2023-02-01T02:12:49;2.00;94.70
9448;DHT22;4762;48.128;11.376;2023-02-01T02:14:51;2.00;94.70
9448;DHT22;4762;48.128;11.376;2023-02-01T02:19:48;1.90;94.40
9448;DHT22;4762;48.128;11.376;2023-02-01T02:22:13;1.90;94.50
9448;DHT22;4762;48.128;11.376;2023-02-01T02:26:31;2.00;94.60
9448;DHT22;4762;48.128;11.376;2023-02-01T02:30:51;2.10;94.40
9448;DHT22;4762;48.128;11.376;2023-02-01T02:35:19;1.90;94.30
9448;DHT22;4762;48.128;11.376;2023-02-01T02:37:23;2.10;94.20
9448;DHT22;4762;48.128;11.376;2023-02-01T02:39:33;2.10;94.10
9448;DHT22;4762;48.128;11.376;2023-02-01T02:41:33;1.90;94.00
9448;DHT22;4762;48.128;11.376;2023-02-01T02:43:44;1.90;94.10
9448;DHT22;4762;48.128;11.376;2023-02-01T02:46:14;2.00;93.80
9448;DHT22;4762;48.128;11.376;2023-02-01T02:48:35;2.10;93.80
9448;DHT22;4762;48.128;11.376;2023-02-01T02:51:00;2.10;93.50
9448;DHT22;4762;48.128;11.376;2023-02-01T02:53:14;2.00;93.40
9448;DHT22;4762;48.128;11.376;2023-02-01T02:55:20;2.10;93.30
9448;DHT22;4762;48.128;11.376;2023-02-01T02:57:26;2.10;93.30
9448;DHT22;4762;48.128;11.376;2023-02-01T02:59:32;2.20;93.30
9448;DHT22;4762;48.128;11.376;2023-02-01T03:01:40;1.90;93.30
9448;DHT22;4762;48.128;11.376;2023-02-01T03:03:48;2.10;93.00
9448;DHT22;4762;48.128;11.376;2023-02-01T03:05:56;2.20;92.80
9448;DHT22;4762;48.128;11.376;2023-02-01T03:08:02;2.20;92.60
9448;DHT22;4762;48.128;11.376;2023-02-01T03:10:05;2.30;92.60
9448;DHT22;4762;48.128;11.376;2023-02-01T03:12:08;2.40;92.40
9448;DHT22;4762;48.128;11.376;2023-02-01T03:14:14;2.20;92.50
9448;DHT22;4762;48.128;11.376;2023-02-01T03:16:24;2.30;92.70
9448;DHT22;4762;48.128;11.376;2023-02-01T03:18:36;2.40;92.30
9448;DHT22;4762;48.128;11.376;2023-02-01T03:20:36;2.50;92.10
9448;DHT22;4762;48.128;11.376;2023-02-01T03:22:38;2.40;92.30
9448;DHT22;4762;48.128;11.376;2023-02-01T03:24:42;2.30;92.40
9448;DHT22;4762;48.128;11.376;2023-02-01T03:26:46;2.10;92.30
9448;DHT22;4762;48.128;11.376;2023-02-01T03:28:48;2.30;92.00
9448;DHT22;4762;48.128;11.376;2023-02-01T03:30:48;2.20;91.90
9448;DHT22;4762;48.128;11.376;2023-02-01T03:32:51;2.30;91.80
9448;DHT22;4762;48.128;11.376;2023-02-01T03:34:58;2.30;91.80
9448;DHT22;4762;48.128;11.376;2023-02-01T03:37:03;2.20;91.80
9448;DHT22;4762;48.128;11.376;2023-02-01T03:39:13;2.50;91.90
9448;DHT22;4762;48.128;11.376;2023-02-01T03:41:37;2.30;91.90
9448;DHT22;4762;48.128;11.376;2023-02-01T03:43:42;2.20;91.80
9448;DHT22;4762;48.128;11.376;2023-02-01T03:45:43;2.50;91.80
9448;DHT22;4762;48.128;11.376;2023-02-01T03:47:45;2.30;91.80
9448;DHT22;4762;48.128;11.376;2023-02-01T03:49:49;2.30;91.50
9448;DHT22;4762;48.128;11.376;2023-02-01T03:51:49;2.30;91.60
9448;DHT22;4762;48.128;11.376;2023-02-01T03:53:51;2.40;91.50
9448;DHT22;4762;48.128;11.376;2023-02-01T03:55:53;2.40;91.50
9448;DHT22;4762;48.128;11.376;2023-02-01T03:58:07;2.30;91.70
9448;DHT22;4762;48.128;11.376;2023-02-01T04:00:16;2.20;91.50
9448;DHT22;4762;48.128;11.376;2023-02-01T04:02:12;2.40;91.30
9448;DHT22;4762;48.128;11.376;2023-02-01T04:04:15;2.40;91.10
9448;DHT22;4762;48.128;11.376;2023-02-01T04:06:17;2.40;91.30
9448;DHT22;4762;48.128;11.376;2023-02-01T04:08:20;2.10;91.20
9448;DHT22;4762;48.128;11.376;2023-02-01T04:10:21;2.30;91.00
9448;DHT22;4762;48.128;11.376;2023-02-01T04:12:24;2.40;91.00
9448;DHT22;4762;48.128;11.376;2023-02-01T04:14:26;2.40;91.00
9448;DHT22;4762;48.128;11.376;2023-02-01T04:16:28;2.40;91.10
9448;DHT22;4762;48.128;11.376;2023-02-01T04:18:30;2.40;90.80
9448;DHT22;4762;48.128;11.376;2023-02-01T04:20:32;2.30;90.80
9448;DHT22;4762;48.128;11.376;2023-02-01T04:22:37;2.20;90.80
9448;DHT22;4762;48.128;11.376;2023-02-01T04:24:39;2.20;90.70
9448;DHT22;4762;48.128;11.376;2023-02-01T04:26:41;2.20;90.90
9448;DHT22;4762;48.128;11.376;2023-02-01T04:28:44;2.30;90.70
9448;DHT22;4762;48.128;11.376;2023-02-01T04:30:46;2.30;90.50
9448;DHT22;4762;48.128;11.376;2023-02-01T04:32:48;2.30;90.40
9448;DHT22;4762;48.128;11.376;2023-02-01T04:34:50;2.30;90.00
9448;DHT22;4762;48.128;11.376;2023-02-01T04:36:52;2.20;90.20
9448;DHT22;4762;48.128;11.376;2023-02-01T04:38:55;2.30;90.40
9448;DHT22;4762;48.128;11.376;2023-02-01T04:40:57;2.40;90.30
9448;DHT22;4762;48.128;11.376;2023-02-01T04:43:00;2.40;90.10
9448;DHT22;4762;48.128;11.376;2023-02-01T04:45:02;2.40;90.20
9448;DHT22;4762;48.128;11.376;2023-02-01T04:47:05;2.30;90.30
9448;DHT22;4762;48.128;11.376;2023-02-01T04:49:08;2.30;90.20
9448;DHT22;4762;48.128;11.376;2023-02-01T04:51:10;2.30;90.00
9448;DHT22;4762;48.128;11.376;2023-02-01T04:53:13;2.30;90.10
9448;DHT22;4762;48.128;11.376;2023-02-01T04:55:14;2.40;89.70
9448;DHT22;4762;48.128;11.376;2023-02-01T04:57:17;2.40;89.80
9448;DHT22;4762;48.128;11.376;2023-02-01T04:59:19;2.40;89.80
9448;DHT22;4762;48.128;11.376;2023-02-01T05:01:21;2.30;89.90
9448;DHT22;4762;48.128;11.376;2023-02-01T05:03:23;2.30;89.60
9448;DHT22;4762;48.128;11.376;2023-02-01T05:05:26;2.20;89.70
9448;DHT22;4762;48.128;11.376;2023-02-01T05:07:28;2.40;89.70
9448;DHT22;4762;48.128;11.376;2023-02-01T05:09:30;2.40;89.40
9448;DHT22;4762;48.128;11.376;2023-02-01T05:11:32;2.40;89.30
9448;DHT22;4762;48.128;11.376;2023-02-01T05:13:40;2.50;89.50
9448;DHT22;4762;48.128;11.376;2023-02-01T05:15:50;2.40;89.50
9448;DHT22;4762;48.128;11.376;2023-02-01T05:17:50;2.60;89.50
9448;DHT22;4762;48.128;11.376;2023-02-01T05:19:53;2.50;89.40
9448;DHT22;4762;48.128;11.376;2023-02-01T05:21:55;2.40;89.10
9448;DHT22;4762;48.128;11.376;2023-02-01T05:23:57;2.40;89.20
9448;DHT22;4762;48.128;11.376;2023-02-01T05:26:05;2.40;89.30
9448;DHT22;4762;48.128;11.376;2023-02-01T05:28:07;2.30;89.50
9448;DHT22;4762;48.128;11.376;2023-02-01T05:30:10;2.30;89.40
9448;DHT22;4762;48.128;11.376;2023-02-01T05:32:12;2.50;89.30
9448;DHT22;4762;48.128;11.376;2023-02-01T05:34:15;2.40;89.20
9448;DHT22;4762;48.128;11.376;2023-02-01T05:36:17;2.40;89.00
9448;DHT22;4762;48.128;11.376;2023-02-01T05:38:19;2.30;89.20
9448;DHT22;4762;48.128;11.376;2023-02-01T05:40:22;2.60;89.30
9448;DHT22;4762;48.128;11.376;2023-02-01T05:42:24;2.30;89.30
9448;DHT22;4762;48.128;11.376;2023-02-01T05:44:26;2.40;89.20
9448;DHT22;4762;48.128;11.376;2023-02-01T05:46:29;2.50;89.30
9448;DHT22;4762;48.128;11.376;2023-02-01T05:48:31;2.40;89.20
9448;DHT22;4762;48.128;11.376;2023-02-01T05:50:33;2.50;89.40
9448;DHT22;4762;48.128;11.376;2023-02-01T05:52:35;2.40;89.30
9448;DHT22;4762;48.128;11.376;2023-02-01T05:54:38;2.30;89.20
9448;DHT22;4762;48.128;11.376;2023-02-01T05:56:40;2.40;89.30
9448;DHT22;4762;48.128;11.376;2023-02-01T05:58:42;2.50;89.30
9448;DHT22;4762;48.128;11.376;2023-02-01T06:00:44;2.50;89.30
9448;DHT22;4762;48.128;11.376;2023-02-01T06:02:46;2.50;89.30
9448;DHT22;4762;48.128;11.376;2023-02-01T06:04:49;2.60;89.20
9448;DHT22;4762;48.128;11.376;2023-02-01T06:06:51;2.50;89.50
9448;DHT22;4762;48.128;11.376;2023-02-01T06:08:53;2.20;89.80
9448;DHT22;4762;48.128;11.376;2023-02-01T06:10:58;2.40;89.70
9448;DHT22;4762;48.128;11.376;2023-02-01T06:13:00;2.20;90.00
9448;DHT22;4762;48.128;11.376;2023-02-01T06:15:02;2.40;89.60
9448;DHT22;4762;48.128;11.376;2023-02-01T06:17:08;2.50;89.70
9448;DHT22;4762;48.128;11.376;2023-02-01T06:19:10;2.30;89.60
9448;DHT22;4762;48.128;11.376;2023-02-01T06:23:34;2.60;89.30
9448;DHT22;4762;48.128;11.376;2023-02-01T06:25:36;2.50;89.10
9448;DHT22;4762;48.128;11.376;2023-02-01T06:27:38;2.40;89.10
9448;DHT22;4762;48.128;11.376;2023-02-01T06:29:41;2.40;89.00
9448;DHT22;4762;48.128;11.376;2023-02-01T06:31:43;2.60;89.00
9448;DHT22;4762;48.128;11.376;2023-02-01T06:33:45;2.70;89.20
9448;DHT22;4762;48.128;11.376;2023-02-01T06:35:47;2.50;89.10
9448;DHT22;4762;48.128;11.376;2023-02-01T06:37:50;2.50;89.10
9448;DHT22;4762;48.128;11.376;2023-02-01T06:39:52;2.50;89.40
9448;DHT22;4762;48.128;11.376;2023-02-01T06:41:54;2.50;89.10
9448;DHT22;4762;48.128;11.376;2023-02-01T06:43:56;2.40;89.10
9448;DHT22;4762;48.128;11.376;2023-02-01T06:46:01;2.70;89.00
9448;DHT22;4762;48.128;11.376;2023-02-01T06:48:03;2.50;89.10
9448;DHT22;4762;48.128;11.376;2023-02-01T06:50:05;2.50;89.20
9448;DHT22;4762;48.128;11.376;2023-02-01T06:52:08;2.70;89.10
9448;DHT22;4762;48.128;11.376;2023-02-01T06:54:10;2.60;89.10
9448;DHT22;4762;48.128;11.376;2023-02-01T06:56:12;2.70;89.20
9448;DHT22;4762;48.128;11.376;2023-02-01T06:58:14;2.40;89.40
9448;DHT22;4762;48.128;11.376;2023-02-01T07:00:17;2.80;89.30
9448;DHT22;4762;48.128;11.376;2023-02-01T07:02:19;2.60;89.20
9448;DHT22;4762;48.128;11.376;2023-02-01T07:04:22;2.60;88.90
9448;DHT22;4762;48.128;11.376;2023-02-01T07:06:24;2.60;89.00
9448;DHT22;4762;48.128;11.376;2023-02-01T07:08:28;2.70;89.00
9448;DHT22;4762;48.128;11.376;2023-02-01T07:10:29;2.70;89.10
9448;DHT22;4762;48.128;11.376;2023-02-01T07:12:31;2.50;89.00
9448;DHT22;4762;48.128;11.376;2023-02-01T07:14:34;2.90;88.90
9448;DHT22;4762;48.128;11.376;2023-02-01T07:16:36;2.60;88.90
9448;DHT22;4762;48.128;11.376;2023-02-01T07:18:38;2.80;88.60
9448;DHT22;4762;48.128;11.376;2023-02-01T07:20:41;2.60;88.20
9448;DHT22;4762;48.128;11.376;2023-02-01T07:22:44;2.80;88.70
9448;DHT22;4762;48.128;11.376;2023-02-01T07:24:46;2.70;88.70
9448;DHT22;4762;48.128;11.376;2023-02-01T07:26:48;2.80;88.60
9448;DHT22;4762;48.128;11.376;2023-02-01T07:28:50;2.80;88.70
9448;DHT22;4762;48.128;11.376;2023-02-01T07:30:52;3.00;88.50
9448;DHT22;4762;48.128;11.376;2023-02-01T07:32:55;2.90;88.40
9448;DHT22;4762;48.128;11.376;2023-02-01T07:34:57;2.70;88.80
9448;DHT22;4762;48.128;11.376;2023-02-01T07:36:59;2.70;88.50
9448;DHT22;4762;48.128;11.376;2023-02-01T07:39:03;2.70;88.60
9448;DHT22;4762;48.128;11.376;2023-02-01T07:41:05;2.80;88.50
9448;DHT22;4762;48.128;11.376;2023-02-01T07:43:07;2.70;88.30
9448;DHT22;4762;48.128;11.376;2023-02-01T07:45:09;2.80;88.30
9448;DHT22;4762;48.128;11.376;2023-02-01T07:47:12;2.80;88.20
9448;DHT22;4762;48.128;11.376;2023-02-01T07:49:14;2.80;88.20
9448;DHT22;4762;48.128;11.376;2023-02-01T07:51:16;2.80;88.00
9448;DHT22;4762;48.128;11.376;2023-02-01T07:53:18;3.00;87.50
9448;DHT22;4762;48.128;11.376;2023-02-01T07:55:21;3.00;87.40
9448;DHT22;4762;48.128;11.376;2023-02-01T07:57:23;3.00;87.10
9448;DHT22;4762;48.128;11.376;2023-02-01T07:59:25;3.20;86.70
9448;DHT22;4762;48.128;11.376;2023-02-01T08:01:28;3.20;86.70
9448;DHT22;4762;48.128;11.376;2023-02-01T08:03:29;3.20;86.50
9448;DHT22;4762;48.128;11.376;2023-02-01T08:05:32;3.10;86.60
9448;DHT22;4762;48.128;11.376;2023-02-01T08:07:34;3.20;86.20
9448;DHT22;4762;48.128;11.376;2023-02-01T08:09:36;3.30;86.30
9448;DHT22;4762;48.128;11.376;2023-02-01T08:11:39;3.20;85.90
9448;DHT22;4762;48.128;11.376;2023-02-01T08:13:41;3.10;86.00
9448;DHT22;4762;48.128;11.376;2023-02-01T08:15:43;3.20;85.90
9448;DHT22;4762;48.128;11.376;2023-02-01T08:17:47;3.20;85.70
9448;DHT22;4762;48.128;11.376;2023-02-01T08:19:49;3.30;85.20
9448;DHT22;4762;48.128;11.376;2023-02-01T08:21:52;3.50;85.40
9448;DHT22;4762;48.128;11.376;2023-02-01T08:23:54;3.50;85.60
9448;DHT22;4762;48.128;11.376;2023-02-01T08:26:04;3.30;85.30
9448;DHT22;4762;48.128;11.376;2023-02-01T08:28:06;3.40;85.20
9448;DHT22;4762;48.128;11.376;2023-02-01T08:30:08;3.50;84.90
9448;DHT22;4762;48.128;11.376;2023-02-01T08:32:11;3.30;84.50
9448;DHT22;4762;48.128;11.376;2023-02-01T08:34:13;3.40;84.40
9448;DHT22;4762;48.128;11.376;2023-02-01T08:36:16;3.40;84.80
9448;DHT22;4762;48.128;11.376;2023-02-01T08:38:18;3.50;84.80
9448;DHT22;4762;48.128;11.376;2023-02-01T08:40:20;3.50;84.70
9448;DHT22;4762;48.128;11.376;2023-02-01T08:42:22;3.50;84.60
9448;DHT22;4762;48.128;11.376;2023-02-01T08:44:30;3.30;84.30
9448;DHT22;4762;48.128;11.376;2023-02-01T08:46:32;3.60;84.40
9448;DHT22;4762;48.128;11.376;2023-02-01T08:48:34;3.70;84.50
9448;DHT22;4762;48.128;11.376;2023-02-01T08:50:37;3.60;84.50
9448;DHT22;4762;48.128;11.376;2023-02-01T08:52:39;3.60;84.10
9448;DHT22;4762;48.128;11.376;2023-02-01T08:54:41;3.60;84.50
9448;DHT22;4762;48.128;11.376;2023-02-01T08:56:43;3.80;84.20
9448;DHT22;4762;48.128;11.376;2023-02-01T08:58:46;3.90;83.60
9448;DHT22;4762;48.128;11.376;2023-02-01T09:00:48;3.80;83.60
9448;DHT22;4762;48.128;11.376;2023-02-01T09:02:50;3.70;84.00
9448;DHT22;4762;48.128;11.376;2023-02-01T09:04:52;3.70;84.30
9448;DHT22;4762;48.128;11.376;2023-02-01T09:06:55;3.60;83.60
9448;DHT22;4762;48.128;11.376;2023-02-01T09:08:57;3.70;83.80
9448;DHT22;4762;48.128;11.376;2023-02-01T09:11:00;3.90;83.90
9448;DHT22;4762;48.128;11.376;2023-02-01T09:13:01;3.80;83.80
9448;DHT22;4762;48.128;11.376;2023-02-01T09:15:05;3.90;84.00
9448;DHT22;4762;48.128;11.376;2023-02-01T09:17:07;3.80;83.90
9448;DHT22;4762;48.128;11.376;2023-02-01T09:19:10;3.90;83.80
9448;DHT22;4762;48.128;11.376;2023-02-01T09:21:12;3.70;83.90
9448;DHT22;4762;48.128;11.376;2023-02-01T09:23:14;3.70;83.80
9448;DHT22;4762;48.128;11.376;2023-02-01T09:25:16;3.90;83.90
9448;DHT22;4762;48.128;11.376;2023-02-01T09:27:19;3.80;84.00
9448;DHT22;4762;48.128;11.376;2023-02-01T09:29:28;3.80;83.80
9448;DHT22;4762;48.128;11.376;2023-02-01T09:31:30;4.00;84.00
9448;DHT22;4762;48.128;11.376;2023-02-01T09:33:32;4.00;83.90
9448;DHT22;4762;48.128;11.376;2023-02-01T09:35:35;4.10;84.10
9448;DHT22;4762;48.128;11.376;2023-02-01T09:37:37;4.10;83.70
9448;DHT22;4762;48.128;11.376;2023-02-01T09:39:40;4.30;84.00
9448;DHT22;4762;48.128;11.376;2023-02-01T09:41:47;4.20;84.10
9448;DHT22;4762;48.128;11.376;2023-02-01T09:43:51;4.00;83.80
9448;DHT22;4762;48.128;11.376;2023-02-01T09:45:59;4.10;83.80
9448;DHT22;4762;48.128;11.376;2023-02-01T09:47:59;4.10;83.90
9448;DHT22;4762;48.128;11.376;2023-02-01T09:50:06;4.20;83.90
9448;DHT22;4762;48.128;11.376;2023-02-01T09:52:07;4.30;83.50
9448;DHT22;4762;48.128;11.376;2023-02-01T09:54:12;4.10;83.60
9448;DHT22;4762;48.128;11.376;2023-02-01T09:56:25;4.00;83.60
9448;DHT22;4762;48.128;11.376;2023-02-01T09:58:41;4.10;83.90
9448;DHT22;4762;48.128;11.376;2023-02-01T10:00:42;4.10;84.30
9448;DHT22;4762;48.128;11.376;2023-02-01T10:02:43;4.20;84.00
9448;DHT22;4762;48.128;11.376;2023-02-01T10:04:50;4.20;84.50
9448;DHT22;4762;48.128;11.376;2023-02-01T10:09:39;4.00;84.50
9448;DHT22;4762;48.128;11.376;2023-02-01T10:11:53;4.00;84.20
9448;DHT22;4762;48.128;11.376;2023-02-01T10:14:01;4.00;84.70
9448;DHT22;4762;48.128;11.376;2023-02-01T10:16:26;4.00;84.70
9448;DHT22;4762;48.128;11.376;2023-02-01T10:21:04;4.00;84.70
9448;DHT22;4762;48.128;11.376;2023-02-01T10:25:41;3.80;84.60
9448;DHT22;4762;48.128;11.376;2023-02-01T10:27:39;3.90;84.90
9448;DHT22;4762;48.128;11.376;2023-02-01T10:30:04;3.90;84.80
9448;DHT22;4762;48.128;11.376;2023-02-01T10:32:03;4.00;85.10
9448;DHT22;4762;48.128;11.376;2023-02-01T10:34:11;3.90;84.70
9448;DHT22;4762;48.128;11.376;2023-02-01T10:36:16;4.10;84.80
9448;DHT22;4762;48.128;11.376;2023-02-01T10:38:24;4.20;84.90
9448;DHT22;4762;48.128;11.376;2023-02-01T10:40:25;4.20;84.60
9448;DHT22;4762;48.128;11.376;2023-02-01T10:42:27;4.10;84.70
9448;DHT22;4762;48.128;11.376;2023-02-01T10:44:30;4.10;84.70
9448;DHT22;4762;48.128;11.376;2023-02-01T10:46:33;4.10;84.60
9448;DHT22;4762;48.128;11.376;2023-02-01T10:48:34;4.20;84.60
9448;DHT22;4762;48.128;11.376;2023-02-01T10:50:39;4.00;84.80
9448;DHT22;4762;48.128;11.376;2023-02-01T10:52:48;4.10;84.90
9448;DHT22;4762;48.128;11.376;2023-02-01T10:54:49;4.20;85.00
9448;DHT22;4762;48.128;11.376;2023-02-01T10:56:51;4.00;85.10
9448;DHT22;4762;48.128;11.376;2023-02-01T10:59:02;3.90;84.70
9448;DHT22;4762;48.128;11.376;2023-02-01T11:03:30;3.70;84.90
9448;DHT22;4762;48.128;11.376;2023-02-01T11:05:42;4.20;85.10
9448;DHT22;4762;48.128;11.376;2023-02-01T11:07:32;4.20;84.90
9448;DHT22;4762;48.128;11.376;2023-02-01T11:09:35;4.20;84.80
9448;DHT22;4762;48.128;11.376;2023-02-01T11:11:58;4.00;84.70
9448;DHT22;4762;48.128;11.376;2023-02-01T11:14:00;4.20;84.80
9448;DHT22;4762;48.128;11.376;2023-02-01T11:16:02;4.10;84.60
9448;DHT22;4762;48.128;11.376;2023-02-01T11:18:14;4.30;84.70
9448;DHT22;4762;48.128;11.376;2023-02-01T11:20:16;4.10;84.60
9448;DHT22;4762;48.128;11.376;2023-02-01T11:22:17;4.20;84.90
9448;DHT22;4762;48.128;11.376;2023-02-01T11:24:23;4.20;85.00
9448;DHT22;4762;48.128;11.376;2023-02-01T11:26:25;4.00;84.40
9448;DHT22;4762;48.128;11.376;2023-02-01T11:28:32;4.00;84.80
9448;DHT22;4762;48.128;11.376;2023-02-01T11:30:37;4.10;84.80
9448;DHT22;4762;48.128;11.376;2023-02-01T11:32:38;4.20;84.30
9448;DHT22;4762;48.128;11.376;2023-02-01T11:34:45;3.90;84.60
9448;DHT22;4762;48.128;11.376;2023-02-01T11:36:46;3.90;84.60
9448;DHT22;4762;48.128;11.376;2023-02-01T11:38:53;3.90;85.00
9448;DHT22;4762;48.128;11.376;2023-02-01T11:40:54;4.00;84.70
9448;DHT22;4762;48.128;11.376;2023-02-01T11:42:57;3.90;84.90
9448;DHT22;4762;48.128;11.376;2023-02-01T11:47:21;4.00;84.80
9448;DHT22;4762;48.128;11.376;2023-02-01T11:49:26;3.80;84.90
9448;DHT22;4762;48.128;11.376;2023-02-01T11:54:05;3.70;85.20
9448;DHT22;4762;48.128;11.376;2023-02-01T11:56:18;3.80;85.30
9448;DHT22;4762;48.128;11.376;2023-02-01T11:59:30;3.90;85.70
9448;DHT22;4762;48.128;11.376;2023-02-01T12:00:47;3.80;85.40
9448;DHT22;4762;48.128;11.376;2023-02-01T12:02:53;3.80;85.50
9448;DHT22;4762;48.128;11.376;2023-02-01T12:05:03;3.60;85.80
9448;DHT22;4762;48.128;11.376;2023-02-01T12:07:13;3.70;85.70
9448;DHT22;4762;48.128;11.376;2023-02-01T12:11:42;3.90;85.40
9448;DHT22;4762;48.128;11.376;2023-02-01T12:13:47;3.70;85.30
9448;DHT22;4762;48.128;11.376;2023-02-01T12:16:12;3.70;85.30
9448;DHT22;4762;48.128;11.376;2023-02-01T12:18:29;3.80;85.40
9448;DHT22;4762;48.128;11.376;2023-02-01T12:20:55;3.60;85.50
9448;DHT22;4762;48.128;11.376;2023-02-01T12:30:15;3.70;85.10
9448;DHT22;4762;48.128;11.376;2023-02-01T12:33:25;3.50;84.70
9448;DHT22;4762;48.128;11.376;2023-02-01T12:37:08;3.60;84.70
9448;DHT22;4762;48.128;11.376;2023-02-01T12:39:19;3.70;84.50
9448;DHT22;4762;48.128;11.376;2023-02-01T12:41:33;3.70;84.90
9448;DHT22;4762;48.128;11.376;2023-02-01T12:43:46;3.70;84.30
9448;DHT22;4762;48.128;11.376;2023-02-01T12:45:51;3.60;84.40
9448;DHT22;4762;48.128;11.376;2023-02-01T12:47:55;3.70;84.10
9448;DHT22;4762;48.128;11.376;2023-02-01T12:50:08;3.90;83.90
9448;DHT22;4762;48.128;11.376;2023-02-01T12:52:14;3.90;83.70
9448;DHT22;4762;48.128;11.376;2023-02-01T12:54:21;3.90;83.80
9448;DHT22;4762;48.128;11.376;2023-02-01T12:56:28;3.90;84.00
9448;DHT22;4762;48.128;11.376;2023-02-01T12:58:40;3.50;83.70
9448;DHT22;4762;48.128;11.376;2023-02-01T13:00:40;3.60;83.60
9448;DHT22;4762;48.128;11.376;2023-02-01T13:05:19;3.90;83.80
9448;DHT22;4762;48.128;11.376;2023-02-01T13:09:51;3.80;84.10
9448;DHT22;4762;48.128;11.376;2023-02-01T13:11:52;3.80;84.20
9448;DHT22;4762;48.128;11.376;2023-02-01T13:13:57;3.80;84.20
9448;DHT22;4762;48.128;11.376;2023-02-01T13:16:01;3.90;84.40
9448;DHT22;4762;48.128;11.376;2023-02-01T13:18:02;3.80;84.40
9448;DHT22;4762;48.128;11.376;2023-02-01T13:20:06;3.70;84.90
9448;DHT22;4762;48.128;11.376;2023-02-01T13:22:11;3.80;84.90
9448;DHT22;4762;48.128;11.376;2023-02-01T13:24:22;3.70;85.50
9448;DHT22;4762;48.128;11.376;2023-02-01T13:26:24;3.90;85.40
9448;DHT22;4762;48.128;11.376;2023-02-01T13:28:39;3.70;85.40
9448;DHT22;4762;48.128;11.376;2023-02-01T13:35:29;3.90;85.70
9448;DHT22;4762;48.128;11.376;2023-02-01T13:37:40;3.80;85.60
9448;DHT22;4762;48.128;11.376;2023-02-01T13:39:43;3.70;85.50
9448;DHT22;4762;48.128;11.376;2023-02-01T13:41:51;3.70;85.60
9448;DHT22;4762;48.128;11.376;2023-02-01T13:43:45;4.00;85.80
9448;DHT22;4762;48.128;11.376;2023-02-01T13:45:47;3.70;85.80
9448;DHT22;4762;48.128;11.376;2023-02-01T13:47:50;3.70;85.60
9448;DHT22;4762;48.128;11.376;2023-02-01T13:49:58;3.90;85.70
9448;DHT22;4762;48.128;11.376;2023-02-01T13:51:59;3.90;85.50
9448;DHT22;4762;48.128;11.376;2023-02-01T13:54:02;4.00;85.40
9448;DHT22;4762;48.128;11.376;2023-02-01T13:56:09;3.80;85.30
9448;DHT22;4762;48.128;11.376;2023-02-01T13:58:30;3.60;85.10
9448;DHT22;4762;48.128;11.376;2023-02-01T14:00:33;3.80;85.20
9448;DHT22;4762;48.128;11.376;2023-02-01T14:03:10;3.90;84.90
9448;DHT22;4762;48.128;11.376;2023-02-01T14:04:54;3.80;84.90
9448;DHT22;4762;48.128;11.376;2023-02-01T14:06:56;3.90;85.00
9448;DHT22;4762;48.128;11.376;2023-02-01T14:09:12;4.00;85.00
9448;DHT22;4762;48.128;11.376;2023-02-01T14:11:30;4.00;84.90
9448;DHT22;4762;48.128;11.376;2023-02-01T14:13:37;3.70;84.60
9448;DHT22;4762;48.128;11.376;2023-02-01T14:15:39;3.80;84.30
9448;DHT22;4762;48.128;11.376;2023-02-01T14:17:41;3.60;84.50
9448;DHT22;4762;48.128;11.376;2023-02-01T14:19:43;3.90;84.30
9448;DHT22;4762;48.128;11.376;2023-02-01T14:21:48;3.80;84.40